AUA29N LOWW-EBBR
Flight info
| Callsign | AUA29N |
|---|---|
| Flight time | 1h 21m |
| Altitude | 38000 |
| Route | MEDIX DCT RENKA DCT INBED DCT TEKTU DCT TESGA DCT UMUPU T880 BATTY |
| Aircraft | A321/M-SDE3FGHIRWY/LB1 |
Departure
| Time | 2026-05-07 18:24 |
|---|---|
| Airport | Vienna International Airport (LOWW) |
Arrival
| Time | 2026-05-07 19:45 |
|---|---|
| Airport | Brussels Airport (EBBR) |
| Time | Latitude | Longitude | Altitude | Speed | Heading |
|---|---|---|---|---|---|
| 2026-05-07 17:53 | 48.11834 | 16.56991 | 609 ft | 0 kts | 206° |
| 2026-05-07 18:11 | 48.11835 | 16.56992 | 609 ft | 2 kts | 206° |
| 2026-05-07 18:11 | 48.11852 | 16.57004 | 627 ft | 3 kts | 206° |
| 2026-05-07 18:12 | 48.11869 | 16.57017 | 624 ft | 3 kts | 197° |
| 2026-05-07 18:12 | 48.11888 | 16.57020 | 624 ft | 3 kts | 166° |
| 2026-05-07 18:12 | 48.11906 | 16.57009 | 619 ft | 3 kts | 135° |
| 2026-05-07 18:12 | 48.11917 | 16.56986 | 624 ft | 3 kts | 105° |
| 2026-05-07 18:13 | 48.11919 | 16.56961 | 620 ft | 3 kts | 98° |
| 2026-05-07 18:13 | 48.11923 | 16.56936 | 617 ft | 1 kts | 115° |
| 2026-05-07 18:16 | 48.11922 | 16.56938 | 618 ft | 2 kts | 115° |
| 2026-05-07 18:16 | 48.11918 | 16.56950 | 624 ft | 4 kts | 116° |
| 2026-05-07 18:16 | 48.11900 | 16.57005 | 621 ft | 8 kts | 117° |
| 2026-05-07 18:16 | 48.11872 | 16.57089 | 619 ft | 8 kts | 115° |
| 2026-05-07 18:17 | 48.11866 | 16.57110 | 618 ft | 0 kts | 115° |
| 2026-05-07 18:19 | 48.11865 | 16.57113 | 616 ft | 2 kts | 115° |
| 2026-05-07 18:19 | 48.11855 | 16.57157 | 614 ft | 5 kts | 97° |
| 2026-05-07 18:19 | 48.11850 | 16.57219 | 609 ft | 9 kts | 108° |
| 2026-05-07 18:19 | 48.11823 | 16.57310 | 614 ft | 8 kts | 119° |
| 2026-05-07 18:20 | 48.11782 | 16.57354 | 617 ft | 8 kts | 160° |
| 2026-05-07 18:20 | 48.11710 | 16.57387 | 620 ft | 12 kts | 164° |
| 2026-05-07 18:20 | 48.11635 | 16.57419 | 615 ft | 11 kts | 164° |
| 2026-05-07 18:20 | 48.11564 | 16.57449 | 622 ft | 10 kts | 164° |
| 2026-05-07 18:21 | 48.11499 | 16.57460 | 609 ft | 9 kts | 192° |
| 2026-05-07 18:21 | 48.11411 | 16.57401 | 615 ft | 17 kts | 205° |
| 2026-05-07 18:21 | 48.11312 | 16.57330 | 616 ft | 14 kts | 206° |
| 2026-05-07 18:21 | 48.11232 | 16.57284 | 612 ft | 11 kts | 178° |
| 2026-05-07 18:22 | 48.11184 | 16.57351 | 620 ft | 10 kts | 117° |
| 2026-05-07 18:22 | 48.11158 | 16.57431 | 609 ft | 16 kts | 116° |
| 2026-05-07 18:22 | 48.11094 | 16.57619 | 620 ft | 11 kts | 125° |
| 2026-05-07 18:22 | 48.11035 | 16.57639 | 609 ft | 8 kts | 199° |
| 2026-05-07 18:23 | 48.10970 | 16.57594 | 614 ft | 14 kts | 206° |
| 2026-05-07 18:23 | 48.10931 | 16.57492 | 614 ft | 13 kts | 286° |
| 2026-05-07 18:23 | 48.11014 | 16.57226 | 619 ft | 59 kts | 296° |
| 2026-05-07 18:23 | 48.11295 | 16.56361 | 625 ft | 122 kts | 296° |
| 2026-05-07 18:24 | 48.11734 | 16.54990 | 648 ft | 165 kts | 296° |
| 2026-05-07 18:24 | 48.12237 | 16.53469 | 1270 ft | 160 kts | 288° |
| 2026-05-07 18:24 | 48.12309 | 16.51827 | 1857 ft | 162 kts | 259° |
| 2026-05-07 18:24 | 48.12099 | 16.50074 | 2247 ft | 182 kts | 257° |
| 2026-05-07 18:25 | 48.11829 | 16.48109 | 2580 ft | 204 kts | 257° |
| 2026-05-07 18:25 | 48.11474 | 16.45911 | 2948 ft | 230 kts | 254° |
| 2026-05-07 18:25 | 48.11021 | 16.43496 | 3488 ft | 250 kts | 254° |
| 2026-05-07 18:25 | 48.10538 | 16.40961 | 4360 ft | 256 kts | 255° |
| 2026-05-07 18:26 | 48.10211 | 16.39218 | 5008 ft | 259 kts | 256° |
| 2026-05-07 18:26 | 48.09836 | 16.36575 | 5931 ft | 262 kts | 268° |
| 2026-05-07 18:26 | 48.09852 | 16.33830 | 6824 ft | 266 kts | 276° |
| 2026-05-07 18:26 | 48.10291 | 16.31139 | 7664 ft | 269 kts | 288° |
| 2026-05-07 18:27 | 48.10867 | 16.28467 | 8536 ft | 271 kts | 288° |
| 2026-05-07 18:27 | 48.11455 | 16.25758 | 9396 ft | 275 kts | 288° |
| 2026-05-07 18:27 | 48.12048 | 16.23020 | 10207 ft | 279 kts | 288° |
| 2026-05-07 18:27 | 48.12669 | 16.20149 | 10525 ft | 301 kts | 288° |
| 2026-05-07 18:28 | 48.13334 | 16.17067 | 10870 ft | 319 kts | 287° |
| 2026-05-07 18:28 | 48.14020 | 16.13879 | 11538 ft | 325 kts | 287° |
| 2026-05-07 18:28 | 48.14715 | 16.10638 | 12303 ft | 328 kts | 287° |
| 2026-05-07 18:28 | 48.14951 | 16.09536 | 12547 ft | 329 kts | 287° |
| 2026-05-07 18:29 | 48.15533 | 16.06822 | 13170 ft | 333 kts | 287° |
| 2026-05-07 18:29 | 48.16243 | 16.03502 | 13920 ft | 336 kts | 287° |
| 2026-05-07 18:29 | 48.16960 | 16.00156 | 14601 ft | 340 kts | 287° |
| 2026-05-07 18:29 | 48.17684 | 15.96765 | 15264 ft | 344 kts | 286° |
| 2026-05-07 18:30 | 48.18412 | 15.93336 | 15923 ft | 348 kts | 286° |
| 2026-05-07 18:30 | 48.19147 | 15.89862 | 16584 ft | 352 kts | 286° |
| 2026-05-07 18:30 | 48.19891 | 15.86354 | 17234 ft | 356 kts | 285° |
| 2026-05-07 18:30 | 48.20645 | 15.82797 | 17883 ft | 359 kts | 285° |
| 2026-05-07 18:31 | 48.21403 | 15.79206 | 18500 ft | 363 kts | 285° |
| 2026-05-07 18:31 | 48.22166 | 15.75585 | 19072 ft | 366 kts | 285° |
| 2026-05-07 18:31 | 48.22934 | 15.71935 | 19649 ft | 368 kts | 285° |
| 2026-05-07 18:31 | 48.23708 | 15.68266 | 20226 ft | 370 kts | 285° |
| 2026-05-07 18:32 | 48.24486 | 15.64570 | 20781 ft | 373 kts | 285° |
| 2026-05-07 18:32 | 48.25264 | 15.60853 | 21313 ft | 375 kts | 285° |
| 2026-05-07 18:32 | 48.26045 | 15.57098 | 21829 ft | 378 kts | 285° |
| 2026-05-07 18:32 | 48.26831 | 15.53322 | 22332 ft | 380 kts | 285° |
| 2026-05-07 18:33 | 48.27621 | 15.49519 | 22827 ft | 383 kts | 284° |
| 2026-05-07 18:33 | 48.28413 | 15.45692 | 23315 ft | 386 kts | 284° |
| 2026-05-07 18:33 | 48.29213 | 15.41828 | 23772 ft | 388 kts | 284° |
| 2026-05-07 18:33 | 48.29966 | 15.37924 | 24186 ft | 390 kts | 282° |
| 2026-05-07 18:34 | 48.30641 | 15.33967 | 24615 ft | 392 kts | 281° |
| 2026-05-07 18:34 | 48.31269 | 15.29970 | 25055 ft | 394 kts | 280° |
| 2026-05-07 18:34 | 48.31881 | 15.25940 | 25504 ft | 397 kts | 280° |
| 2026-05-07 18:34 | 48.32496 | 15.21890 | 25958 ft | 399 kts | 280° |
| 2026-05-07 18:35 | 48.33124 | 15.17815 | 26399 ft | 401 kts | 280° |
| 2026-05-07 18:35 | 48.33765 | 15.13726 | 26828 ft | 403 kts | 280° |
| 2026-05-07 18:35 | 48.34415 | 15.09614 | 27274 ft | 406 kts | 280° |
| 2026-05-07 18:35 | 48.35073 | 15.05477 | 27717 ft | 408 kts | 281° |
| 2026-05-07 18:36 | 48.35736 | 15.01327 | 28136 ft | 410 kts | 280° |
| 2026-05-07 18:36 | 48.36401 | 14.97144 | 28558 ft | 412 kts | 280° |
| 2026-05-07 18:36 | 48.37064 | 14.92944 | 28987 ft | 414 kts | 280° |
| 2026-05-07 18:36 | 48.37728 | 14.88724 | 29389 ft | 416 kts | 280° |
| 2026-05-07 18:37 | 48.38394 | 14.84470 | 29776 ft | 419 kts | 280° |
| 2026-05-07 18:37 | 48.39061 | 14.80198 | 30155 ft | 421 kts | 280° |
| 2026-05-07 18:37 | 48.39732 | 14.75893 | 30467 ft | 423 kts | 280° |
| 2026-05-07 18:37 | 48.40403 | 14.71575 | 30782 ft | 426 kts | 280° |
| 2026-05-07 18:38 | 48.41059 | 14.67339 | 31054 ft | 428 kts | 280° |
| 2026-05-07 18:38 | 48.41732 | 14.62972 | 31339 ft | 430 kts | 280° |
| 2026-05-07 18:38 | 48.42411 | 14.58581 | 31668 ft | 430 kts | 280° |
| 2026-05-07 18:38 | 48.43087 | 14.54206 | 32052 ft | 429 kts | 280° |
| 2026-05-07 18:39 | 48.43759 | 14.49829 | 32436 ft | 428 kts | 280° |
| 2026-05-07 18:39 | 48.44428 | 14.45459 | 32817 ft | 428 kts | 280° |
| 2026-05-07 18:39 | 48.45094 | 14.41097 | 33175 ft | 427 kts | 281° |
| 2026-05-07 18:39 | 48.45756 | 14.36736 | 33521 ft | 427 kts | 280° |
| 2026-05-07 18:40 | 48.46417 | 14.32373 | 33848 ft | 427 kts | 281° |
| 2026-05-07 18:40 | 48.47075 | 14.28021 | 34143 ft | 426 kts | 280° |
| 2026-05-07 18:40 | 48.47731 | 14.23663 | 34406 ft | 426 kts | 280° |
| 2026-05-07 18:40 | 48.48384 | 14.19304 | 34635 ft | 426 kts | 280° |
| 2026-05-07 18:41 | 48.49037 | 14.14939 | 34869 ft | 427 kts | 280° |
| 2026-05-07 18:41 | 48.49688 | 14.10582 | 35111 ft | 427 kts | 280° |
| 2026-05-07 18:41 | 48.50338 | 14.06221 | 35341 ft | 427 kts | 280° |
| 2026-05-07 18:41 | 48.50988 | 14.01847 | 35572 ft | 427 kts | 280° |
| 2026-05-07 18:42 | 48.51638 | 13.97477 | 35795 ft | 427 kts | 280° |
| 2026-05-07 18:42 | 48.52286 | 13.93107 | 36021 ft | 427 kts | 280° |
| 2026-05-07 18:42 | 48.52931 | 13.88740 | 36244 ft | 427 kts | 280° |
| 2026-05-07 18:42 | 48.53572 | 13.84365 | 36460 ft | 427 kts | 280° |
| 2026-05-07 18:43 | 48.54214 | 13.79987 | 36656 ft | 427 kts | 280° |
| 2026-05-07 18:43 | 48.54860 | 13.75563 | 36866 ft | 427 kts | 280° |
| 2026-05-07 18:43 | 48.55488 | 13.71235 | 37052 ft | 427 kts | 280° |
| 2026-05-07 18:43 | 48.56125 | 13.66851 | 37237 ft | 427 kts | 280° |
| 2026-05-07 18:44 | 48.56762 | 13.62469 | 37430 ft | 427 kts | 280° |
| 2026-05-07 18:44 | 48.57404 | 13.58031 | 37617 ft | 428 kts | 280° |
| 2026-05-07 18:44 | 48.58033 | 13.53698 | 37793 ft | 428 kts | 281° |
| 2026-05-07 18:44 | 48.58918 | 13.49405 | 37968 ft | 430 kts | 290° |
| 2026-05-07 18:45 | 48.60213 | 13.45255 | 38058 ft | 432 kts | 294° |
| 2026-05-07 18:45 | 48.62893 | 13.37131 | 38065 ft | 432 kts | 294° |
| 2026-05-07 18:46 | 48.65556 | 13.28986 | 38065 ft | 432 kts | 294° |
| 2026-05-07 18:46 | 48.68210 | 13.20839 | 38067 ft | 432 kts | 294° |
| 2026-05-07 18:47 | 48.70868 | 13.12677 | 38069 ft | 432 kts | 294° |
| 2026-05-07 18:47 | 48.73516 | 13.04511 | 38076 ft | 432 kts | 294° |
| 2026-05-07 18:48 | 48.76152 | 12.96322 | 38081 ft | 433 kts | 294° |
| 2026-05-07 18:48 | 48.78791 | 12.88124 | 38085 ft | 433 kts | 294° |
| 2026-05-07 18:49 | 48.81430 | 12.79917 | 38090 ft | 433 kts | 294° |
| 2026-05-07 18:49 | 48.84059 | 12.71697 | 38093 ft | 433 kts | 294° |
| 2026-05-07 18:50 | 48.86677 | 12.63480 | 38094 ft | 433 kts | 293° |
| 2026-05-07 18:50 | 48.89290 | 12.55240 | 38101 ft | 432 kts | 293° |
| 2026-05-07 18:51 | 48.91895 | 12.47011 | 38100 ft | 432 kts | 294° |
| 2026-05-07 18:51 | 48.94498 | 12.38771 | 38101 ft | 432 kts | 293° |
| 2026-05-07 18:52 | 48.97094 | 12.30523 | 38103 ft | 432 kts | 293° |
| 2026-05-07 18:52 | 48.99678 | 12.22277 | 38100 ft | 431 kts | 293° |
| 2026-05-07 18:53 | 49.02256 | 12.14024 | 38091 ft | 431 kts | 293° |
| 2026-05-07 18:53 | 49.04830 | 12.05769 | 38089 ft | 431 kts | 293° |
| 2026-05-07 18:54 | 49.07395 | 11.97506 | 38085 ft | 431 kts | 293° |
| 2026-05-07 18:54 | 49.09958 | 11.89218 | 38083 ft | 432 kts | 293° |
| 2026-05-07 18:55 | 49.12516 | 11.80930 | 38079 ft | 432 kts | 293° |
| 2026-05-07 18:55 | 49.15069 | 11.72631 | 38080 ft | 432 kts | 293° |
| 2026-05-07 18:56 | 49.17615 | 11.64320 | 38085 ft | 432 kts | 293° |
| 2026-05-07 18:56 | 49.20151 | 11.56002 | 38090 ft | 432 kts | 293° |
| 2026-05-07 18:57 | 49.22637 | 11.47817 | 38098 ft | 431 kts | 293° |
| 2026-05-07 18:57 | 49.25161 | 11.39482 | 38093 ft | 431 kts | 293° |
| 2026-05-07 18:58 | 49.27682 | 11.31166 | 38101 ft | 431 kts | 293° |
| 2026-05-07 18:58 | 49.30218 | 11.22862 | 38101 ft | 431 kts | 297° |
| 2026-05-07 18:59 | 49.33809 | 11.15465 | 38102 ft | 433 kts | 306° |
| 2026-05-07 18:59 | 49.37555 | 11.08223 | 38098 ft | 433 kts | 306° |
| 2026-05-07 19:00 | 49.41300 | 11.00966 | 38103 ft | 434 kts | 306° |
| 2026-05-07 19:00 | 49.45034 | 10.93691 | 38098 ft | 433 kts | 306° |
| 2026-05-07 19:01 | 49.48757 | 10.86413 | 38102 ft | 433 kts | 306° |
| 2026-05-07 19:01 | 49.52480 | 10.79109 | 38097 ft | 433 kts | 306° |
| 2026-05-07 19:02 | 49.56202 | 10.71804 | 38090 ft | 434 kts | 306° |
| 2026-05-07 19:02 | 49.59925 | 10.64495 | 38089 ft | 434 kts | 306° |
| 2026-05-07 19:03 | 49.63636 | 10.57167 | 38099 ft | 433 kts | 306° |
| 2026-05-07 19:03 | 49.66739 | 10.51010 | 38097 ft | 434 kts | 306° |
| 2026-05-07 19:04 | 49.70446 | 10.43663 | 38089 ft | 434 kts | 306° |
| 2026-05-07 19:04 | 49.74152 | 10.36294 | 38094 ft | 434 kts | 306° |
| 2026-05-07 19:05 | 49.77851 | 10.28915 | 38096 ft | 434 kts | 306° |
| 2026-05-07 19:05 | 49.81542 | 10.21514 | 38101 ft | 434 kts | 306° |
| 2026-05-07 19:06 | 49.85230 | 10.14105 | 38103 ft | 434 kts | 306° |
| 2026-05-07 19:06 | 49.90767 | 10.02980 | 38101 ft | 434 kts | 306° |
| 2026-05-07 19:07 | 49.94443 | 9.95542 | 38098 ft | 434 kts | 305° |
| 2026-05-07 19:07 | 49.98115 | 9.88087 | 38098 ft | 434 kts | 306° |
| 2026-05-07 19:08 | 50.01786 | 9.80633 | 38098 ft | 434 kts | 305° |
| 2026-05-07 19:08 | 50.05444 | 9.73169 | 38089 ft | 434 kts | 305° |
| 2026-05-07 19:09 | 50.09100 | 9.65688 | 38096 ft | 434 kts | 305° |
| 2026-05-07 19:09 | 50.12756 | 9.58200 | 38100 ft | 434 kts | 305° |
| 2026-05-07 19:10 | 50.16403 | 9.50711 | 38094 ft | 434 kts | 304° |
| 2026-05-07 19:10 | 50.17951 | 9.46691 | 38095 ft | 430 kts | 290° |
| 2026-05-07 19:10 | 50.18894 | 9.42285 | 38094 ft | 429 kts | 285° |
| 2026-05-07 19:11 | 50.20634 | 9.33383 | 38092 ft | 429 kts | 285° |
| 2026-05-07 19:11 | 50.22370 | 9.24462 | 38093 ft | 430 kts | 285° |
| 2026-05-07 19:12 | 50.24096 | 9.15518 | 38096 ft | 430 kts | 285° |
| 2026-05-07 19:12 | 50.25815 | 9.06564 | 38095 ft | 430 kts | 285° |
| 2026-05-07 19:13 | 50.27442 | 8.98099 | 38095 ft | 430 kts | 285° |
| 2026-05-07 19:13 | 50.29098 | 8.89438 | 38098 ft | 430 kts | 285° |
| 2026-05-07 19:14 | 50.30797 | 8.80485 | 38100 ft | 430 kts | 285° |
| 2026-05-07 19:14 | 50.32487 | 8.71512 | 38106 ft | 430 kts | 285° |
| 2026-05-07 19:15 | 50.34170 | 8.62542 | 38105 ft | 429 kts | 285° |
| 2026-05-07 19:15 | 50.35848 | 8.53564 | 38105 ft | 429 kts | 285° |
| 2026-05-07 19:16 | 50.37528 | 8.44588 | 38109 ft | 429 kts | 285° |
| 2026-05-07 19:16 | 50.39195 | 8.35610 | 38107 ft | 429 kts | 285° |
| 2026-05-07 19:17 | 50.40860 | 8.26616 | 38108 ft | 429 kts | 285° |
| 2026-05-07 19:17 | 50.42510 | 8.17623 | 38108 ft | 430 kts | 285° |
| 2026-05-07 19:18 | 50.44155 | 8.08608 | 37863 ft | 429 kts | 284° |
| 2026-05-07 19:18 | 50.44977 | 8.04101 | 36967 ft | 434 kts | 285° |
| 2026-05-07 19:18 | 50.45816 | 7.99487 | 35775 ft | 444 kts | 285° |
| 2026-05-07 19:19 | 50.46676 | 7.94722 | 34704 ft | 451 kts | 285° |
| 2026-05-07 19:19 | 50.47525 | 7.90004 | 33822 ft | 447 kts | 285° |
| 2026-05-07 19:19 | 50.48359 | 7.85361 | 32702 ft | 447 kts | 285° |
| 2026-05-07 19:19 | 50.49212 | 7.80612 | 31923 ft | 444 kts | 285° |
| 2026-05-07 19:20 | 50.50046 | 7.75967 | 31223 ft | 439 kts | 285° |
| 2026-05-07 19:20 | 50.50866 | 7.71377 | 30592 ft | 435 kts | 285° |
| 2026-05-07 19:20 | 50.51677 | 7.66807 | 29903 ft | 431 kts | 285° |
| 2026-05-07 19:20 | 50.52476 | 7.62307 | 29316 ft | 424 kts | 285° |
| 2026-05-07 19:21 | 50.53262 | 7.57880 | 28783 ft | 417 kts | 285° |
| 2026-05-07 19:21 | 50.54034 | 7.53535 | 28269 ft | 410 kts | 285° |
| 2026-05-07 19:21 | 50.54792 | 7.49259 | 27761 ft | 402 kts | 285° |
| 2026-05-07 19:21 | 50.55516 | 7.45055 | 27271 ft | 395 kts | 282° |
| 2026-05-07 19:22 | 50.55870 | 7.40968 | 27055 ft | 386 kts | 272° |
| 2026-05-07 19:22 | 50.55905 | 7.36755 | 27072 ft | 386 kts | 270° |
| 2026-05-07 19:22 | 50.55933 | 7.32537 | 27075 ft | 386 kts | 270° |
| 2026-05-07 19:22 | 50.55968 | 7.28324 | 27072 ft | 386 kts | 270° |
| 2026-05-07 19:23 | 50.56001 | 7.24105 | 27072 ft | 386 kts | 270° |
| 2026-05-07 19:23 | 50.56032 | 7.19892 | 27075 ft | 386 kts | 270° |
| 2026-05-07 19:23 | 50.56052 | 7.15670 | 27076 ft | 385 kts | 269° |
| 2026-05-07 19:23 | 50.56010 | 7.11460 | 27077 ft | 385 kts | 268° |
| 2026-05-07 19:24 | 50.55920 | 7.07248 | 27066 ft | 385 kts | 267° |
| 2026-05-07 19:24 | 50.55805 | 7.03074 | 26587 ft | 381 kts | 267° |
| 2026-05-07 19:24 | 50.55686 | 6.98930 | 25966 ft | 377 kts | 267° |
| 2026-05-07 19:24 | 50.55572 | 6.94811 | 25358 ft | 374 kts | 267° |
| 2026-05-07 19:25 | 50.55467 | 6.90756 | 24769 ft | 371 kts | 267° |
| 2026-05-07 19:25 | 50.55388 | 6.86714 | 24185 ft | 368 kts | 271° |
| 2026-05-07 19:25 | 50.55809 | 6.82770 | 23621 ft | 366 kts | 286° |
| 2026-05-07 19:25 | 50.56544 | 6.78955 | 22959 ft | 364 kts | 286° |
| 2026-05-07 19:26 | 50.57286 | 6.75167 | 22352 ft | 361 kts | 286° |
| 2026-05-07 19:26 | 50.58023 | 6.71409 | 22080 ft | 360 kts | 286° |
| 2026-05-07 19:26 | 50.58773 | 6.67589 | 22072 ft | 374 kts | 286° |
| 2026-05-07 19:26 | 50.59549 | 6.63621 | 22078 ft | 384 kts | 286° |
| 2026-05-07 19:27 | 50.60336 | 6.59589 | 22082 ft | 386 kts | 286° |
| 2026-05-07 19:27 | 50.61125 | 6.55536 | 22083 ft | 387 kts | 286° |
| 2026-05-07 19:27 | 50.61910 | 6.51480 | 22078 ft | 387 kts | 286° |
| 2026-05-07 19:27 | 50.62694 | 6.47422 | 22088 ft | 387 kts | 286° |
| 2026-05-07 19:28 | 50.63474 | 6.43368 | 22079 ft | 388 kts | 286° |
| 2026-05-07 19:28 | 50.64261 | 6.39277 | 21255 ft | 399 kts | 286° |
| 2026-05-07 19:28 | 50.65078 | 6.35021 | 20324 ft | 407 kts | 286° |
| 2026-05-07 19:28 | 50.65888 | 6.30814 | 19855 ft | 397 kts | 286° |
| 2026-05-07 19:29 | 50.66683 | 6.26669 | 19332 ft | 393 kts | 286° |
| 2026-05-07 19:29 | 50.67467 | 6.22559 | 18844 ft | 390 kts | 286° |
| 2026-05-07 19:29 | 50.68244 | 6.18476 | 18349 ft | 388 kts | 286° |
| 2026-05-07 19:29 | 50.69016 | 6.14420 | 17833 ft | 385 kts | 286° |
| 2026-05-07 19:30 | 50.69779 | 6.10388 | 17334 ft | 383 kts | 286° |
| 2026-05-07 19:30 | 50.70535 | 6.06374 | 16876 ft | 380 kts | 285° |
| 2026-05-07 19:30 | 50.71285 | 6.02383 | 16408 ft | 378 kts | 285° |
| 2026-05-07 19:30 | 50.72026 | 5.98439 | 15967 ft | 370 kts | 285° |
| 2026-05-07 19:31 | 50.72757 | 5.94571 | 15510 ft | 366 kts | 286° |
| 2026-05-07 19:31 | 50.73532 | 5.90780 | 15007 ft | 361 kts | 288° |
| 2026-05-07 19:31 | 50.74355 | 5.87072 | 14556 ft | 354 kts | 289° |
| 2026-05-07 19:31 | 50.75192 | 5.83441 | 14026 ft | 351 kts | 289° |
| 2026-05-07 19:32 | 50.76029 | 5.79840 | 13434 ft | 348 kts | 289° |
| 2026-05-07 19:32 | 50.76853 | 5.76261 | 12826 ft | 345 kts | 289° |
| 2026-05-07 19:32 | 50.77660 | 5.72709 | 12171 ft | 344 kts | 289° |
| 2026-05-07 19:32 | 50.78463 | 5.69138 | 11449 ft | 345 kts | 289° |
| 2026-05-07 19:33 | 50.79258 | 5.65570 | 10823 ft | 343 kts | 289° |
| 2026-05-07 19:33 | 50.80044 | 5.62020 | 10236 ft | 341 kts | 289° |
| 2026-05-07 19:33 | 50.80820 | 5.58519 | 9872 ft | 331 kts | 289° |
| 2026-05-07 19:33 | 50.81561 | 5.55170 | 9741 ft | 314 kts | 289° |
| 2026-05-07 19:34 | 50.82266 | 5.51983 | 9603 ft | 299 kts | 289° |
| 2026-05-07 19:34 | 50.82938 | 5.48949 | 9438 ft | 287 kts | 289° |
| 2026-05-07 19:34 | 50.83588 | 5.46003 | 9087 ft | 282 kts | 289° |
| 2026-05-07 19:34 | 50.84229 | 5.43085 | 8683 ft | 280 kts | 289° |
| 2026-05-07 19:35 | 50.84864 | 5.40188 | 8270 ft | 278 kts | 289° |
| 2026-05-07 19:35 | 50.85498 | 5.37306 | 7855 ft | 277 kts | 289° |
| 2026-05-07 19:35 | 50.86128 | 5.34442 | 7450 ft | 275 kts | 289° |
| 2026-05-07 19:35 | 50.86756 | 5.31590 | 7049 ft | 273 kts | 289° |
| 2026-05-07 19:36 | 50.87388 | 5.28720 | 6627 ft | 272 kts | 289° |
| 2026-05-07 19:36 | 50.88007 | 5.25899 | 6232 ft | 270 kts | 289° |
| 2026-05-07 19:36 | 50.88611 | 5.23130 | 6083 ft | 270 kts | 289° |
| 2026-05-07 19:36 | 50.89234 | 5.20272 | 6088 ft | 272 kts | 289° |
| 2026-05-07 19:37 | 50.89847 | 5.17442 | 6088 ft | 272 kts | 289° |
| 2026-05-07 19:37 | 50.90452 | 5.14642 | 6085 ft | 272 kts | 289° |
| 2026-05-07 19:37 | 50.91071 | 5.11779 | 6046 ft | 271 kts | 289° |
| 2026-05-07 19:37 | 50.91680 | 5.08964 | 5655 ft | 269 kts | 289° |
| 2026-05-07 19:38 | 50.92287 | 5.06154 | 5296 ft | 269 kts | 289° |
| 2026-05-07 19:38 | 50.92893 | 5.03352 | 4949 ft | 269 kts | 289° |
| 2026-05-07 19:38 | 50.93501 | 5.00548 | 4580 ft | 268 kts | 289° |
| 2026-05-07 19:38 | 50.93899 | 4.98704 | 4403 ft | 268 kts | 289° |
| 2026-05-07 19:39 | 50.94695 | 4.95001 | 4085 ft | 267 kts | 289° |
| 2026-05-07 19:39 | 50.95098 | 4.93118 | 3988 ft | 267 kts | 289° |
| 2026-05-07 19:39 | 50.95693 | 4.90332 | 3722 ft | 266 kts | 289° |
| 2026-05-07 19:39 | 50.96282 | 4.87574 | 3476 ft | 261 kts | 289° |
| 2026-05-07 19:40 | 50.96856 | 4.84881 | 3220 ft | 255 kts | 289° |
| 2026-05-07 19:40 | 50.97415 | 4.82260 | 3031 ft | 246 kts | 289° |
| 2026-05-07 19:40 | 50.97947 | 4.79766 | 3007 ft | 231 kts | 289° |
| 2026-05-07 19:40 | 50.98374 | 4.77415 | 3014 ft | 215 kts | 277° |
| 2026-05-07 19:41 | 50.98305 | 4.75149 | 3008 ft | 202 kts | 256° |
| 2026-05-07 19:41 | 50.97796 | 4.73106 | 3014 ft | 196 kts | 245° |
| 2026-05-07 19:41 | 50.97240 | 4.71159 | 2980 ft | 193 kts | 245° |
| 2026-05-07 19:41 | 50.96690 | 4.69232 | 2769 ft | 191 kts | 245° |
| 2026-05-07 19:42 | 50.96144 | 4.67323 | 2526 ft | 190 kts | 245° |
| 2026-05-07 19:42 | 50.95605 | 4.65438 | 2271 ft | 185 kts | 245° |
| 2026-05-07 19:42 | 50.95077 | 4.63595 | 2027 ft | 181 kts | 245° |
| 2026-05-07 19:42 | 50.94561 | 4.61796 | 1779 ft | 178 kts | 245° |
| 2026-05-07 19:43 | 50.94062 | 4.60055 | 1551 ft | 169 kts | 245° |
| 2026-05-07 19:43 | 50.93584 | 4.58396 | 1320 ft | 160 kts | 245° |
| 2026-05-07 19:43 | 50.93140 | 4.56847 | 1083 ft | 150 kts | 245° |
| 2026-05-07 19:43 | 50.92715 | 4.55375 | 847 ft | 144 kts | 245° |
| 2026-05-07 19:44 | 50.92304 | 4.53958 | 655 ft | 140 kts | 245° |
| 2026-05-07 19:44 | 50.91901 | 4.52560 | 463 ft | 139 kts | 246° |
| 2026-05-07 19:44 | 50.91510 | 4.51170 | 310 ft | 138 kts | 246° |
| 2026-05-07 19:44 | 50.91106 | 4.49778 | 154 ft | 138 kts | 246° |
| 2026-05-07 19:45 | 50.90734 | 4.48484 | 120 ft | 111 kts | 245° |
| 2026-05-07 19:45 | 50.90546 | 4.47847 | 120 ft | 37 kts | 239° |
| 2026-05-07 19:45 | 50.90393 | 4.47610 | 121 ft | 19 kts | 219° |
| 2026-05-07 19:45 | 50.90341 | 4.47563 | 121 ft | 4 kts | 166° |
| 2026-05-07 19:46 | 50.90317 | 4.47608 | 119 ft | 7 kts | 109° |
| 2026-05-07 19:46 | 50.90319 | 4.47656 | 118 ft | 0 kts | 79° |
| 2026-05-07 19:46 | 50.90322 | 4.47677 | 121 ft | 6 kts | 77° |
| 2026-05-07 19:46 | 50.90345 | 4.47764 | 118 ft | 9 kts | 63° |
| 2026-05-07 19:47 | 50.90373 | 4.47852 | 118 ft | 9 kts | 65° |
| 2026-05-07 19:47 | 50.90397 | 4.47940 | 117 ft | 5 kts | 67° |
| 2026-05-07 19:47 | 50.90399 | 4.47949 | 118 ft | 0 kts | 68° |
| 2026-05-07 19:48 | 50.90402 | 4.47961 | 120 ft | 5 kts | 68° |
| 2026-05-07 19:48 | 50.90439 | 4.48089 | 119 ft | 17 kts | 65° |
| 2026-05-07 19:48 | 50.90489 | 4.48261 | 119 ft | 17 kts | 65° |
| 2026-05-07 19:49 | 50.90539 | 4.48435 | 119 ft | 17 kts | 65° |
| 2026-05-07 19:49 | 50.90560 | 4.48548 | 121 ft | 9 kts | 97° |
| 2026-05-07 19:49 | 50.90514 | 4.48580 | 120 ft | 8 kts | 203° |
| 2026-05-07 19:49 | 50.90482 | 4.48510 | 120 ft | 9 kts | 242° |
| 2026-05-07 19:50 | 50.90448 | 4.48393 | 119 ft | 13 kts | 245° |
| 2026-05-07 19:50 | 50.90420 | 4.48293 | 118 ft | 7 kts | 244° |
| 2026-05-07 19:50 | 50.90382 | 4.48277 | 120 ft | 6 kts | 165° |
| 2026-05-07 19:50 | 50.90346 | 4.48302 | 119 ft | 5 kts | 155° |
| 2026-05-07 19:51 | 50.90331 | 4.48312 | 118 ft | 0 kts | 156° |